sensor_id;sensor_type;location;lat;lon;timestamp;P1;durP1;ratioP1;P2;durP2;ratioP2
5845;SDS011;2949;50.778;7.094;2022-10-16T00:00:34;1.80;;;0.87;;
5845;SDS011;2949;50.778;7.094;2022-10-16T00:03:01;2.70;;;1.00;;
5845;SDS011;2949;50.778;7.094;2022-10-16T00:05:27;1.07;;;0.93;;
5845;SDS011;2949;50.778;7.094;2022-10-16T00:07:53;8.33;;;1.13;;
5845;SDS011;2949;50.778;7.094;2022-10-16T00:10:18;6.13;;;1.20;;
5845;SDS011;2949;50.778;7.094;2022-10-16T00:12:44;0.57;;;0.57;;
5845;SDS011;2949;50.778;7.094;2022-10-16T00:15:09;0.80;;;0.80;;
5845;SDS011;2949;50.778;7.094;2022-10-16T00:17:35;3.50;;;1.33;;
5845;SDS011;2949;50.778;7.094;2022-10-16T00:20:00;0.80;;;0.80;;
5845;SDS011;2949;50.778;7.094;2022-10-16T00:22:26;1.77;;;0.80;;
5845;SDS011;2949;50.778;7.094;2022-10-16T00:24:51;1.43;;;1.00;;
5845;SDS011;2949;50.778;7.094;2022-10-16T00:27:17;0.47;;;0.47;;
5845;SDS011;2949;50.778;7.094;2022-10-16T00:29:42;3.23;;;0.77;;
5845;SDS011;2949;50.778;7.094;2022-10-16T00:32:08;3.87;;;1.00;;
5845;SDS011;2949;50.778;7.094;2022-10-16T00:34:34;1.00;;;0.87;;
5845;SDS011;2949;50.778;7.094;2022-10-16T00:36:59;2.20;;;0.90;;
5845;SDS011;2949;50.778;7.094;2022-10-16T00:39:25;1.93;;;0.87;;
5845;SDS011;2949;50.778;7.094;2022-10-16T00:41:50;0.80;;;0.80;;
5845;SDS011;2949;50.778;7.094;2022-10-16T00:47:13;2.00;;;1.20;;
5845;SDS011;2949;50.778;7.094;2022-10-16T00:49:46;0.87;;;0.87;;
5845;SDS011;2949;50.778;7.094;2022-10-16T00:52:13;0.87;;;0.87;;
5845;SDS011;2949;50.778;7.094;2022-10-16T00:54:39;1.63;;;0.70;;
5845;SDS011;2949;50.778;7.094;2022-10-16T00:57:05;1.47;;;0.70;;
5845;SDS011;2949;50.778;7.094;2022-10-16T00:59:33;1.80;;;1.10;;
5845;SDS011;2949;50.778;7.094;2022-10-16T01:02:01;1.70;;;0.70;;
5845;SDS011;2949;50.778;7.094;2022-10-16T01:04:30;0.97;;;0.80;;
5845;SDS011;2949;50.778;7.094;2022-10-16T01:09:57;3.30;;;0.90;;
5845;SDS011;2949;50.778;7.094;2022-10-16T01:12:49;2.20;;;1.10;;
5845;SDS011;2949;50.778;7.094;2022-10-16T01:17:52;1.63;;;1.43;;
5845;SDS011;2949;50.778;7.094;2022-10-16T01:20:47;1.07;;;1.00;;
5845;SDS011;2949;50.778;7.094;2022-10-16T01:23:56;0.90;;;0.90;;
5845;SDS011;2949;50.778;7.094;2022-10-16T01:26:24;2.63;;;1.30;;
5845;SDS011;2949;50.778;7.094;2022-10-16T01:31:39;2.93;;;1.60;;
5845;SDS011;2949;50.778;7.094;2022-10-16T01:34:15;1.70;;;1.60;;
5845;SDS011;2949;50.778;7.094;2022-10-16T01:36:59;2.77;;;1.00;;
5845;SDS011;2949;50.778;7.094;2022-10-16T01:39:30;2.10;;;1.30;;
5845;SDS011;2949;50.778;7.094;2022-10-16T01:42:04;1.77;;;1.00;;
5845;SDS011;2949;50.778;7.094;2022-10-16T01:44:36;1.63;;;1.40;;
5845;SDS011;2949;50.778;7.094;2022-10-16T01:47:03;3.97;;;2.00;;
5845;SDS011;2949;50.778;7.094;2022-10-16T01:49:31;1.70;;;1.60;;
5845;SDS011;2949;50.778;7.094;2022-10-16T01:51:59;1.47;;;1.37;;
5845;SDS011;2949;50.778;7.094;2022-10-16T01:54:30;4.00;;;1.60;;
5845;SDS011;2949;50.778;7.094;2022-10-16T01:56:58;7.50;;;1.80;;
5845;SDS011;2949;50.778;7.094;2022-10-16T01:59:25;13.20;;;1.80;;
5845;SDS011;2949;50.778;7.094;2022-10-16T02:01:55;5.23;;;2.43;;
5845;SDS011;2949;50.778;7.094;2022-10-16T02:04:24;1.90;;;1.80;;
5845;SDS011;2949;50.778;7.094;2022-10-16T02:07:01;1.90;;;1.80;;
5845;SDS011;2949;50.778;7.094;2022-10-16T02:09:26;3.27;;;2.47;;
5845;SDS011;2949;50.778;7.094;2022-10-16T02:11:52;2.30;;;2.10;;
5845;SDS011;2949;50.778;7.094;2022-10-16T02:14:21;1.70;;;1.60;;
5845;SDS011;2949;50.778;7.094;2022-10-16T02:16:49;3.30;;;1.93;;
5845;SDS011;2949;50.778;7.094;2022-10-16T02:19:16;2.53;;;1.90;;
5845;SDS011;2949;50.778;7.094;2022-10-16T02:27:07;2.13;;;2.03;;
5845;SDS011;2949;50.778;7.094;2022-10-16T02:29:53;2.60;;;1.60;;
5845;SDS011;2949;50.778;7.094;2022-10-16T02:32:24;1.00;;;1.00;;
5845;SDS011;2949;50.778;7.094;2022-10-16T02:34:55;1.40;;;1.30;;
5845;SDS011;2949;50.778;7.094;2022-10-16T02:37:22;2.40;;;1.40;;
5845;SDS011;2949;50.778;7.094;2022-10-16T02:39:49;3.33;;;1.13;;
5845;SDS011;2949;50.778;7.094;2022-10-16T02:42:17;1.30;;;1.17;;
5845;SDS011;2949;50.778;7.094;2022-10-16T02:44:42;2.60;;;1.40;;
5845;SDS011;2949;50.778;7.094;2022-10-16T02:47:08;1.83;;;1.10;;
5845;SDS011;2949;50.778;7.094;2022-10-16T02:49:33;1.50;;;1.50;;
5845;SDS011;2949;50.778;7.094;2022-10-16T02:51:59;7.20;;;1.13;;
5845;SDS011;2949;50.778;7.094;2022-10-16T02:54:24;1.07;;;1.07;;
5845;SDS011;2949;50.778;7.094;2022-10-16T02:56:50;4.90;;;1.33;;
5845;SDS011;2949;50.778;7.094;2022-10-16T02:59:15;2.80;;;1.37;;
5845;SDS011;2949;50.778;7.094;2022-10-16T03:01:41;1.40;;;1.03;;
5845;SDS011;2949;50.778;7.094;2022-10-16T03:04:07;1.23;;;1.10;;
5845;SDS011;2949;50.778;7.094;2022-10-16T03:06:32;0.90;;;0.90;;
5845;SDS011;2949;50.778;7.094;2022-10-16T03:08:58;0.90;;;0.90;;
5845;SDS011;2949;50.778;7.094;2022-10-16T03:11:23;2.07;;;1.00;;
5845;SDS011;2949;50.778;7.094;2022-10-16T03:13:49;4.93;;;1.30;;
5845;SDS011;2949;50.778;7.094;2022-10-16T03:16:15;1.00;;;0.97;;
5845;SDS011;2949;50.778;7.094;2022-10-16T03:18:40;3.33;;;1.20;;
5845;SDS011;2949;50.778;7.094;2022-10-16T03:21:05;6.43;;;0.93;;
5845;SDS011;2949;50.778;7.094;2022-10-16T03:23:31;1.13;;;1.13;;
5845;SDS011;2949;50.778;7.094;2022-10-16T03:25:57;2.30;;;1.43;;
5845;SDS011;2949;50.778;7.094;2022-10-16T03:28:22;10.10;;;1.50;;
5845;SDS011;2949;50.778;7.094;2022-10-16T03:30:48;1.30;;;1.03;;
5845;SDS011;2949;50.778;7.094;2022-10-16T03:33:13;1.93;;;0.97;;
5845;SDS011;2949;50.778;7.094;2022-10-16T03:35:39;1.83;;;1.00;;
5845;SDS011;2949;50.778;7.094;2022-10-16T03:38:04;1.20;;;1.10;;
5845;SDS011;2949;50.778;7.094;2022-10-16T03:40:30;1.93;;;0.97;;
5845;SDS011;2949;50.778;7.094;2022-10-16T03:42:57;1.57;;;1.00;;
5845;SDS011;2949;50.778;7.094;2022-10-16T03:45:23;1.40;;;0.77;;
5845;SDS011;2949;50.778;7.094;2022-10-16T03:47:49;1.10;;;0.97;;
5845;SDS011;2949;50.778;7.094;2022-10-16T03:50:14;1.23;;;1.10;;
5845;SDS011;2949;50.778;7.094;2022-10-16T03:52:40;5.70;;;0.93;;
5845;SDS011;2949;50.778;7.094;2022-10-16T03:55:05;2.13;;;1.03;;
5845;SDS011;2949;50.778;7.094;2022-10-16T03:57:31;1.07;;;0.83;;
5845;SDS011;2949;50.778;7.094;2022-10-16T03:59:57;1.50;;;0.90;;
5845;SDS011;2949;50.778;7.094;2022-10-16T04:02:22;3.33;;;0.67;;
5845;SDS011;2949;50.778;7.094;2022-10-16T04:04:48;1.90;;;0.70;;
5845;SDS011;2949;50.778;7.094;2022-10-16T04:07:14;1.03;;;0.90;;
5845;SDS011;2949;50.778;7.094;2022-10-16T04:09:39;2.97;;;0.70;;
5845;SDS011;2949;50.778;7.094;2022-10-16T04:12:05;2.10;;;0.90;;
5845;SDS011;2949;50.778;7.094;2022-10-16T04:14:30;4.63;;;1.50;;
5845;SDS011;2949;50.778;7.094;2022-10-16T04:16:56;3.40;;;1.10;;
5845;SDS011;2949;50.778;7.094;2022-10-16T04:19:21;1.90;;;0.87;;
5845;SDS011;2949;50.778;7.094;2022-10-16T04:21:47;1.13;;;1.03;;
5845;SDS011;2949;50.778;7.094;2022-10-16T04:24:12;3.70;;;0.90;;
5845;SDS011;2949;50.778;7.094;2022-10-16T04:26:38;0.83;;;0.80;;
5845;SDS011;2949;50.778;7.094;2022-10-16T04:29:03;0.90;;;0.70;;
5845;SDS011;2949;50.778;7.094;2022-10-16T04:31:29;0.80;;;0.60;;
5845;SDS011;2949;50.778;7.094;2022-10-16T04:33:55;4.23;;;0.90;;
5845;SDS011;2949;50.778;7.094;2022-10-16T04:36:20;0.73;;;0.60;;
5845;SDS011;2949;50.778;7.094;2022-10-16T04:38:46;1.50;;;0.70;;
5845;SDS011;2949;50.778;7.094;2022-10-16T04:41:11;0.90;;;0.90;;
5845;SDS011;2949;50.778;7.094;2022-10-16T04:43:37;0.70;;;0.70;;
5845;SDS011;2949;50.778;7.094;2022-10-16T04:46:02;0.60;;;0.60;;
5845;SDS011;2949;50.778;7.094;2022-10-16T04:48:29;1.00;;;1.00;;
5845;SDS011;2949;50.778;7.094;2022-10-16T04:50:55;0.90;;;0.90;;
5845;SDS011;2949;50.778;7.094;2022-10-16T04:53:21;0.90;;;0.90;;
5845;SDS011;2949;50.778;7.094;2022-10-16T04:55:46;2.07;;;0.87;;
5845;SDS011;2949;50.778;7.094;2022-10-16T04:58:12;2.40;;;1.00;;
5845;SDS011;2949;50.778;7.094;2022-10-16T05:00:37;3.23;;;1.20;;
5845;SDS011;2949;50.778;7.094;2022-10-16T05:03:03;3.57;;;1.07;;
5845;SDS011;2949;50.778;7.094;2022-10-16T05:05:32;2.70;;;1.00;;
5845;SDS011;2949;50.778;7.094;2022-10-16T05:07:58;1.90;;;0.80;;
5845;SDS011;2949;50.778;7.094;2022-10-16T05:10:24;2.00;;;0.60;;
5845;SDS011;2949;50.778;7.094;2022-10-16T05:12:49;3.80;;;0.77;;
5845;SDS011;2949;50.778;7.094;2022-10-16T05:15:16;1.17;;;0.93;;
5845;SDS011;2949;50.778;7.094;2022-10-16T05:17:42;1.33;;;0.93;;
5845;SDS011;2949;50.778;7.094;2022-10-16T05:20:07;1.37;;;1.27;;
5845;SDS011;2949;50.778;7.094;2022-10-16T05:22:33;0.80;;;0.60;;
5845;SDS011;2949;50.778;7.094;2022-10-16T05:24:58;1.07;;;1.07;;
5845;SDS011;2949;50.778;7.094;2022-10-16T05:27:24;5.23;;;1.23;;
5845;SDS011;2949;50.778;7.094;2022-10-16T05:29:49;1.13;;;1.03;;
5845;SDS011;2949;50.778;7.094;2022-10-16T05:32:16;2.63;;;1.00;;
5845;SDS011;2949;50.778;7.094;2022-10-16T05:34:42;0.60;;;0.60;;
5845;SDS011;2949;50.778;7.094;2022-10-16T05:37:08;1.00;;;0.97;;
5845;SDS011;2949;50.778;7.094;2022-10-16T05:39:34;2.40;;;0.93;;
5845;SDS011;2949;50.778;7.094;2022-10-16T05:42:01;1.23;;;0.90;;
5845;SDS011;2949;50.778;7.094;2022-10-16T05:44:27;1.50;;;0.90;;
5845;SDS011;2949;50.778;7.094;2022-10-16T05:46:52;0.80;;;0.80;;
5845;SDS011;2949;50.778;7.094;2022-10-16T05:49:18;0.80;;;0.80;;
5845;SDS011;2949;50.778;7.094;2022-10-16T05:51:43;5.67;;;1.03;;
5845;SDS011;2949;50.778;7.094;2022-10-16T05:54:09;1.00;;;1.00;;
5845;SDS011;2949;50.778;7.094;2022-10-16T05:56:35;0.80;;;0.80;;
5845;SDS011;2949;50.778;7.094;2022-10-16T05:59:00;2.70;;;0.80;;
5845;SDS011;2949;50.778;7.094;2022-10-16T06:01:27;4.80;;;0.93;;
5845;SDS011;2949;50.778;7.094;2022-10-16T06:03:53;1.63;;;0.83;;
5845;SDS011;2949;50.778;7.094;2022-10-16T06:06:22;1.70;;;0.83;;
5845;SDS011;2949;50.778;7.094;2022-10-16T06:08:50;3.17;;;1.03;;
5845;SDS011;2949;50.778;7.094;2022-10-16T06:11:18;1.10;;;1.10;;
5845;SDS011;2949;50.778;7.094;2022-10-16T06:13:53;2.00;;;0.90;;
5845;SDS011;2949;50.778;7.094;2022-10-16T06:16:21;5.83;;;1.10;;
5845;SDS011;2949;50.778;7.094;2022-10-16T06:18:47;2.80;;;1.30;;
5845;SDS011;2949;50.778;7.094;2022-10-16T06:21:19;2.07;;;1.27;;
5845;SDS011;2949;50.778;7.094;2022-10-16T06:23:46;2.43;;;0.93;;
5845;SDS011;2949;50.778;7.094;2022-10-16T06:26:12;2.60;;;1.17;;
5845;SDS011;2949;50.778;7.094;2022-10-16T06:28:39;1.77;;;1.10;;
5845;SDS011;2949;50.778;7.094;2022-10-16T06:31:05;4.60;;;1.33;;
5845;SDS011;2949;50.778;7.094;2022-10-16T06:33:32;1.87;;;1.77;;
5845;SDS011;2949;50.778;7.094;2022-10-16T06:36:08;1.53;;;1.30;;
5845;SDS011;2949;50.778;7.094;2022-10-16T06:38:39;1.53;;;1.47;;
5845;SDS011;2949;50.778;7.094;2022-10-16T06:41:05;1.67;;;1.57;;
5845;SDS011;2949;50.778;7.094;2022-10-16T06:43:32;3.07;;;1.20;;
5845;SDS011;2949;50.778;7.094;2022-10-16T06:46:00;2.80;;;1.40;;
5845;SDS011;2949;50.778;7.094;2022-10-16T06:48:26;1.80;;;1.30;;
5845;SDS011;2949;50.778;7.094;2022-10-16T06:53:22;2.77;;;1.60;;
5845;SDS011;2949;50.778;7.094;2022-10-16T06:55:48;3.20;;;1.30;;
5845;SDS011;2949;50.778;7.094;2022-10-16T06:58:13;5.03;;;1.13;;
5845;SDS011;2949;50.778;7.094;2022-10-16T07:00:39;1.13;;;1.13;;
5845;SDS011;2949;50.778;7.094;2022-10-16T07:03:04;0.90;;;0.90;;
5845;SDS011;2949;50.778;7.094;2022-10-16T07:05:30;1.07;;;1.07;;
5845;SDS011;2949;50.778;7.094;2022-10-16T07:07:55;3.10;;;1.20;;
5845;SDS011;2949;50.778;7.094;2022-10-16T07:10:21;1.20;;;1.10;;
5845;SDS011;2949;50.778;7.094;2022-10-16T07:12:49;2.20;;;1.07;;
5845;SDS011;2949;50.778;7.094;2022-10-16T07:15:14;1.00;;;0.97;;
5845;SDS011;2949;50.778;7.094;2022-10-16T07:17:40;7.20;;;1.17;;
5845;SDS011;2949;50.778;7.094;2022-10-16T07:20:06;1.47;;;0.87;;
5845;SDS011;2949;50.778;7.094;2022-10-16T07:22:32;1.00;;;0.90;;
5845;SDS011;2949;50.778;7.094;2022-10-16T07:24:57;3.50;;;1.20;;
5845;SDS011;2949;50.778;7.094;2022-10-16T07:27:23;1.57;;;1.07;;
5845;SDS011;2949;50.778;7.094;2022-10-16T07:29:49;1.90;;;0.87;;
5845;SDS011;2949;50.778;7.094;2022-10-16T07:32:15;1.20;;;1.10;;
5845;SDS011;2949;50.778;7.094;2022-10-16T07:34:40;2.83;;;1.03;;
5845;SDS011;2949;50.778;7.094;2022-10-16T07:37:07;0.80;;;0.80;;
5845;SDS011;2949;50.778;7.094;2022-10-16T07:39:32;0.90;;;0.90;;
5845;SDS011;2949;50.778;7.094;2022-10-16T07:41:58;3.27;;;1.50;;
5845;SDS011;2949;50.778;7.094;2022-10-16T07:44:23;0.87;;;0.87;;
5845;SDS011;2949;50.778;7.094;2022-10-16T07:46:49;4.53;;;1.00;;
5845;SDS011;2949;50.778;7.094;2022-10-16T07:49:14;10.73;;;1.10;;
5845;SDS011;2949;50.778;7.094;2022-10-16T07:51:40;1.20;;;1.10;;
5845;SDS011;2949;50.778;7.094;2022-10-16T07:54:07;4.33;;;0.97;;
5845;SDS011;2949;50.778;7.094;2022-10-16T07:56:34;1.00;;;0.90;;
5845;SDS011;2949;50.778;7.094;2022-10-16T07:58:59;2.03;;;1.30;;
5845;SDS011;2949;50.778;7.094;2022-10-16T08:01:25;3.60;;;1.30;;
5845;SDS011;2949;50.778;7.094;2022-10-16T08:03:50;1.37;;;1.10;;
5845;SDS011;2949;50.778;7.094;2022-10-16T08:06:18;0.80;;;0.80;;
5845;SDS011;2949;50.778;7.094;2022-10-16T08:08:45;1.00;;;1.00;;
5845;SDS011;2949;50.778;7.094;2022-10-16T08:11:11;1.60;;;1.50;;
5845;SDS011;2949;50.778;7.094;2022-10-16T08:13:36;2.43;;;1.10;;
5845;SDS011;2949;50.778;7.094;2022-10-16T08:16:02;1.23;;;0.80;;
5845;SDS011;2949;50.778;7.094;2022-10-16T08:18:32;2.00;;;0.80;;
5845;SDS011;2949;50.778;7.094;2022-10-16T08:20:59;0.70;;;0.70;;
5845;SDS011;2949;50.778;7.094;2022-10-16T08:23:25;1.17;;;0.80;;
5845;SDS011;2949;50.778;7.094;2022-10-16T08:25:52;1.00;;;0.70;;
5845;SDS011;2949;50.778;7.094;2022-10-16T08:28:26;1.83;;;1.20;;
5845;SDS011;2949;50.778;7.094;2022-10-16T08:30:51;0.63;;;0.63;;
5845;SDS011;2949;50.778;7.094;2022-10-16T08:33:17;6.53;;;0.90;;
5845;SDS011;2949;50.778;7.094;2022-10-16T08:35:42;0.87;;;0.60;;
5845;SDS011;2949;50.778;7.094;2022-10-16T08:38:15;2.23;;;0.60;;
5845;SDS011;2949;50.778;7.094;2022-10-16T08:40:41;2.00;;;0.70;;
5845;SDS011;2949;50.778;7.094;2022-10-16T08:48:59;0.43;;;0.40;;
5845;SDS011;2949;50.778;7.094;2022-10-16T08:51:28;1.97;;;0.60;;
5845;SDS011;2949;50.778;7.094;2022-10-16T08:53:57;0.50;;;0.50;;
5845;SDS011;2949;50.778;7.094;2022-10-16T08:56:24;0.47;;;0.40;;
5845;SDS011;2949;50.778;7.094;2022-10-16T08:58:51;1.73;;;0.70;;
5845;SDS011;2949;50.778;7.094;2022-10-16T09:01:19;1.07;;;0.50;;
5845;SDS011;2949;50.778;7.094;2022-10-16T09:04:12;1.33;;;0.60;;
5845;SDS011;2949;50.778;7.094;2022-10-16T09:06:56;0.40;;;0.40;;
5845;SDS011;2949;50.778;7.094;2022-10-16T09:09:45;1.27;;;0.40;;
5845;SDS011;2949;50.778;7.094;2022-10-16T09:12:31;4.00;;;0.67;;
5845;SDS011;2949;50.778;7.094;2022-10-16T09:17:44;1.43;;;0.53;;
5845;SDS011;2949;50.778;7.094;2022-10-16T09:22:46;1.43;;;0.73;;
5845;SDS011;2949;50.778;7.094;2022-10-16T09:25:16;1.23;;;0.83;;
5845;SDS011;2949;50.778;7.094;2022-10-16T09:27:45;1.07;;;0.67;;
5845;SDS011;2949;50.778;7.094;2022-10-16T09:30:14;2.87;;;0.70;;
5845;SDS011;2949;50.778;7.094;2022-10-16T09:32:42;0.50;;;0.50;;
5845;SDS011;2949;50.778;7.094;2022-10-16T09:35:14;0.47;;;0.47;;
5845;SDS011;2949;50.778;7.094;2022-10-16T09:37:43;1.37;;;0.40;;
5845;SDS011;2949;50.778;7.094;2022-10-16T09:40:12;2.57;;;0.53;;
5845;SDS011;2949;50.778;7.094;2022-10-16T09:42:48;4.80;;;0.50;;
5845;SDS011;2949;50.778;7.094;2022-10-16T09:45:21;0.50;;;0.30;;
5845;SDS011;2949;50.778;7.094;2022-10-16T09:47:48;0.70;;;0.50;;
5845;SDS011;2949;50.778;7.094;2022-10-16T09:50:24;8.63;;;0.50;;
5845;SDS011;2949;50.778;7.094;2022-10-16T09:53:02;0.90;;;0.60;;
5845;SDS011;2949;50.778;7.094;2022-10-16T09:55:29;0.93;;;0.50;;
5845;SDS011;2949;50.778;7.094;2022-10-16T09:57:55;1.60;;;1.30;;
5845;SDS011;2949;50.778;7.094;2022-10-16T10:00:24;0.87;;;0.50;;
5845;SDS011;2949;50.778;7.094;2022-10-16T10:02:49;0.87;;;0.43;;
5845;SDS011;2949;50.778;7.094;2022-10-16T10:05:23;2.63;;;0.67;;
5845;SDS011;2949;50.778;7.094;2022-10-16T10:07:55;3.63;;;0.37;;
5845;SDS011;2949;50.778;7.094;2022-10-16T10:10:28;1.47;;;0.40;;
5845;SDS011;2949;50.778;7.094;2022-10-16T10:12:56;0.97;;;0.30;;
5845;SDS011;2949;50.778;7.094;2022-10-16T10:15:22;2.37;;;0.80;;
5845;SDS011;2949;50.778;7.094;2022-10-16T10:17:51;0.70;;;0.50;;
5845;SDS011;2949;50.778;7.094;2022-10-16T10:20:30;1.33;;;0.60;;
5845;SDS011;2949;50.778;7.094;2022-10-16T10:22:59;0.50;;;0.50;;
5845;SDS011;2949;50.778;7.094;2022-10-16T10:25:28;1.13;;;0.40;;
5845;SDS011;2949;50.778;7.094;2022-10-16T10:30:43;2.33;;;0.50;;
5845;SDS011;2949;50.778;7.094;2022-10-16T10:36:10;0.47;;;0.33;;
5845;SDS011;2949;50.778;7.094;2022-10-16T10:39:03;0.33;;;0.33;;
5845;SDS011;2949;50.778;7.094;2022-10-16T10:49:56;1.50;;;0.50;;
5845;SDS011;2949;50.778;7.094;2022-10-16T10:52:53;1.00;;;0.40;;
5845;SDS011;2949;50.778;7.094;2022-10-16T11:06:39;1.47;;;0.40;;
5845;SDS011;2949;50.778;7.094;2022-10-16T11:09:20;0.30;;;0.30;;
5845;SDS011;2949;50.778;7.094;2022-10-16T11:11:51;4.53;;;0.50;;
5845;SDS011;2949;50.778;7.094;2022-10-16T11:14:28;1.80;;;0.40;;
5845;SDS011;2949;50.778;7.094;2022-10-16T11:17:02;0.60;;;0.40;;
5845;SDS011;2949;50.778;7.094;2022-10-16T11:19:46;3.17;;;0.40;;
5845;SDS011;2949;50.778;7.094;2022-10-16T11:22:24;1.43;;;0.53;;
5845;SDS011;2949;50.778;7.094;2022-10-16T11:27:52;0.40;;;0.40;;
5845;SDS011;2949;50.778;7.094;2022-10-16T11:30:24;7.30;;;0.53;;
5845;SDS011;2949;50.778;7.094;2022-10-16T11:35:44;0.60;;;0.37;;
5845;SDS011;2949;50.778;7.094;2022-10-16T11:38:25;0.40;;;0.40;;
5845;SDS011;2949;50.778;7.094;2022-10-16T11:53:11;1.03;;;0.47;;
5845;SDS011;2949;50.778;7.094;2022-10-16T11:55:39;0.50;;;0.30;;
5845;SDS011;2949;50.778;7.094;2022-10-16T11:58:08;2.10;;;0.43;;
5845;SDS011;2949;50.778;7.094;2022-10-16T12:00:55;0.70;;;0.43;;
5845;SDS011;2949;50.778;7.094;2022-10-16T12:03:48;1.70;;;0.47;;
5845;SDS011;2949;50.778;7.094;2022-10-16T12:06:37;5.80;;;0.40;;
5845;SDS011;2949;50.778;7.094;2022-10-16T12:09:15;0.97;;;0.40;;
5845;SDS011;2949;50.778;7.094;2022-10-16T12:11:46;0.70;;;0.33;;
5845;SDS011;2949;50.778;7.094;2022-10-16T12:16:38;1.83;;;0.50;;
5845;SDS011;2949;50.778;7.094;2022-10-16T12:19:16;1.63;;;0.40;;
5845;SDS011;2949;50.778;7.094;2022-10-16T12:21:43;1.23;;;0.40;;
5845;SDS011;2949;50.778;7.094;2022-10-16T12:27:06;0.70;;;0.30;;
5845;SDS011;2949;50.778;7.094;2022-10-16T12:29:46;1.33;;;0.30;;
5845;SDS011;2949;50.778;7.094;2022-10-16T12:35:04;1.07;;;0.40;;
5845;SDS011;2949;50.778;7.094;2022-10-16T12:37:41;0.30;;;0.20;;
5845;SDS011;2949;50.778;7.094;2022-10-16T12:40:23;1.70;;;0.57;;
5845;SDS011;2949;50.778;7.094;2022-10-16T12:42:52;0.30;;;0.30;;
5845;SDS011;2949;50.778;7.094;2022-10-16T12:45:28;1.13;;;0.40;;
5845;SDS011;2949;50.778;7.094;2022-10-16T12:47:59;1.43;;;0.30;;
5845;SDS011;2949;50.778;7.094;2022-10-16T12:50:34;0.70;;;0.40;;
5845;SDS011;2949;50.778;7.094;2022-10-16T12:53:02;3.50;;;0.57;;
5845;SDS011;2949;50.778;7.094;2022-10-16T12:56:04;0.30;;;0.30;;
5845;SDS011;2949;50.778;7.094;2022-10-16T13:01:41;0.30;;;0.30;;
5845;SDS011;2949;50.778;7.094;2022-10-16T13:07:34;1.17;;;0.60;;
5845;SDS011;2949;50.778;7.094;2022-10-16T13:10:23;1.70;;;0.30;;
5845;SDS011;2949;50.778;7.094;2022-10-16T13:13:09;0.30;;;0.30;;
5845;SDS011;2949;50.778;7.094;2022-10-16T13:18:52;0.67;;;0.40;;
5845;SDS011;2949;50.778;7.094;2022-10-16T13:21:33;0.40;;;0.40;;
5845;SDS011;2949;50.778;7.094;2022-10-16T13:24:32;0.60;;;0.50;;
5845;SDS011;2949;50.778;7.094;2022-10-16T13:27:13;3.90;;;0.40;;
5845;SDS011;2949;50.778;7.094;2022-10-16T13:29:45;4.30;;;0.57;;
5845;SDS011;2949;50.778;7.094;2022-10-16T13:32:20;0.30;;;0.30;;
5845;SDS011;2949;50.778;7.094;2022-10-16T13:34:46;4.73;;;0.47;;
5845;SDS011;2949;50.778;7.094;2022-10-16T13:37:23;0.50;;;0.30;;
5845;SDS011;2949;50.778;7.094;2022-10-16T13:39:49;0.30;;;0.27;;
5845;SDS011;2949;50.778;7.094;2022-10-16T13:42:25;1.80;;;0.40;;
5845;SDS011;2949;50.778;7.094;2022-10-16T13:44:53;0.77;;;0.40;;
5845;SDS011;2949;50.778;7.094;2022-10-16T13:47:22;0.83;;;0.40;;
5845;SDS011;2949;50.778;7.094;2022-10-16T13:49:59;0.40;;;0.30;;
5845;SDS011;2949;50.778;7.094;2022-10-16T13:52:30;1.07;;;0.30;;
5845;SDS011;2949;50.778;7.094;2022-10-16T13:54:56;0.77;;;0.50;;
5845;SDS011;2949;50.778;7.094;2022-10-16T13:57:22;0.40;;;0.30;;
5845;SDS011;2949;50.778;7.094;2022-10-16T13:59:49;1.60;;;0.60;;
5845;SDS011;2949;50.778;7.094;2022-10-16T14:04:59;0.40;;;0.30;;
5845;SDS011;2949;50.778;7.094;2022-10-16T14:07:28;2.40;;;0.30;;
5845;SDS011;2949;50.778;7.094;2022-10-16T14:10:01;3.70;;;0.43;;
5845;SDS011;2949;50.778;7.094;2022-10-16T14:12:31;0.50;;;0.30;;
5845;SDS011;2949;50.778;7.094;2022-10-16T14:14:58;0.57;;;0.30;;
5845;SDS011;2949;50.778;7.094;2022-10-16T14:17:26;1.80;;;0.60;;
5845;SDS011;2949;50.778;7.094;2022-10-16T14:19:54;1.00;;;0.43;;
5845;SDS011;2949;50.778;7.094;2022-10-16T14:22:34;2.10;;;0.47;;
5845;SDS011;2949;50.778;7.094;2022-10-16T14:27:45;0.93;;;0.40;;
5845;SDS011;2949;50.778;7.094;2022-10-16T14:30:26;1.07;;;0.40;;
5845;SDS011;2949;50.778;7.094;2022-10-16T14:33:06;0.43;;;0.33;;
5845;SDS011;2949;50.778;7.094;2022-10-16T14:36:01;3.90;;;0.97;;
5845;SDS011;2949;50.778;7.094;2022-10-16T14:38:27;0.40;;;0.40;;
5845;SDS011;2949;50.778;7.094;2022-10-16T14:40:54;0.60;;;0.30;;
5845;SDS011;2949;50.778;7.094;2022-10-16T14:43:34;0.40;;;0.30;;
5845;SDS011;2949;50.778;7.094;2022-10-16T14:46:17;1.23;;;0.30;;
5845;SDS011;2949;50.778;7.094;2022-10-16T14:51:35;0.50;;;0.50;;
5845;SDS011;2949;50.778;7.094;2022-10-16T14:54:01;0.40;;;0.30;;
5845;SDS011;2949;50.778;7.094;2022-10-16T14:56:29;0.50;;;0.50;;
5845;SDS011;2949;50.778;7.094;2022-10-16T14:58:58;0.50;;;0.50;;
5845;SDS011;2949;50.778;7.094;2022-10-16T15:01:25;0.70;;;0.70;;
5845;SDS011;2949;50.778;7.094;2022-10-16T15:03:51;0.40;;;0.30;;
5845;SDS011;2949;50.778;7.094;2022-10-16T15:06:18;0.40;;;0.30;;
5845;SDS011;2949;50.778;7.094;2022-10-16T15:08:44;4.37;;;0.40;;
5845;SDS011;2949;50.778;7.094;2022-10-16T15:11:16;1.27;;;0.40;;
5845;SDS011;2949;50.778;7.094;2022-10-16T15:13:44;0.77;;;0.40;;
5845;SDS011;2949;50.778;7.094;2022-10-16T15:16:14;0.60;;;0.30;;
5845;SDS011;2949;50.778;7.094;2022-10-16T15:18:41;0.70;;;0.60;;
5845;SDS011;2949;50.778;7.094;2022-10-16T15:21:07;2.43;;;0.83;;
5845;SDS011;2949;50.778;7.094;2022-10-16T15:23:33;0.50;;;0.50;;
5845;SDS011;2949;50.778;7.094;2022-10-16T15:25:59;2.00;;;0.50;;
5845;SDS011;2949;50.778;7.094;2022-10-16T15:28:25;4.20;;;0.50;;
5845;SDS011;2949;50.778;7.094;2022-10-16T15:30:52;1.03;;;0.50;;
5845;SDS011;2949;50.778;7.094;2022-10-16T15:33:20;2.20;;;0.50;;
5845;SDS011;2949;50.778;7.094;2022-10-16T15:35:48;0.70;;;0.50;;
5845;SDS011;2949;50.778;7.094;2022-10-16T15:38:15;0.73;;;0.50;;
5845;SDS011;2949;50.778;7.094;2022-10-16T15:40:41;1.10;;;0.40;;
5845;SDS011;2949;50.778;7.094;2022-10-16T15:43:07;0.90;;;0.60;;
5845;SDS011;2949;50.778;7.094;2022-10-16T15:45:33;0.50;;;0.50;;
5845;SDS011;2949;50.778;7.094;2022-10-16T15:47:59;0.40;;;0.40;;
5845;SDS011;2949;50.778;7.094;2022-10-16T15:50:25;1.70;;;0.60;;
5845;SDS011;2949;50.778;7.094;2022-10-16T15:52:51;1.07;;;0.93;;
5845;SDS011;2949;50.778;7.094;2022-10-16T15:55:17;2.50;;;0.70;;
5845;SDS011;2949;50.778;7.094;2022-10-16T15:57:43;4.90;;;1.50;;
5845;SDS011;2949;50.778;7.094;2022-10-16T16:00:14;5.80;;;0.70;;
5845;SDS011;2949;50.778;7.094;2022-10-16T16:02:41;0.40;;;0.40;;
5845;SDS011;2949;50.778;7.094;2022-10-16T16:05:07;1.57;;;0.83;;
5845;SDS011;2949;50.778;7.094;2022-10-16T16:07:38;1.07;;;0.77;;
5845;SDS011;2949;50.778;7.094;2022-10-16T16:10:05;1.10;;;0.70;;
5845;SDS011;2949;50.778;7.094;2022-10-16T16:12:32;0.80;;;0.67;;
5845;SDS011;2949;50.778;7.094;2022-10-16T16:14:58;0.50;;;0.50;;
5845;SDS011;2949;50.778;7.094;2022-10-16T16:17:24;1.00;;;0.87;;
5845;SDS011;2949;50.778;7.094;2022-10-16T16:19:50;2.40;;;0.60;;
5845;SDS011;2949;50.778;7.094;2022-10-16T16:22:16;1.90;;;0.73;;
5845;SDS011;2949;50.778;7.094;2022-10-16T16:24:42;0.80;;;0.60;;
5845;SDS011;2949;50.778;7.094;2022-10-16T16:27:07;1.03;;;0.87;;
5845;SDS011;2949;50.778;7.094;2022-10-16T16:29:33;2.90;;;0.63;;
5845;SDS011;2949;50.778;7.094;2022-10-16T16:31:59;1.07;;;0.50;;
5845;SDS011;2949;50.778;7.094;2022-10-16T16:34:28;0.70;;;0.70;;
5845;SDS011;2949;50.778;7.094;2022-10-16T16:36:54;1.37;;;0.60;;
5845;SDS011;2949;50.778;7.094;2022-10-16T16:39:21;1.33;;;0.90;;
5845;SDS011;2949;50.778;7.094;2022-10-16T16:41:46;1.20;;;0.80;;
5845;SDS011;2949;50.778;7.094;2022-10-16T16:44:12;0.90;;;0.90;;
5845;SDS011;2949;50.778;7.094;2022-10-16T16:46:38;1.10;;;1.00;;
5845;SDS011;2949;50.778;7.094;2022-10-16T16:49:04;1.50;;;0.60;;
5845;SDS011;2949;50.778;7.094;2022-10-16T16:51:31;0.70;;;0.60;;
5845;SDS011;2949;50.778;7.094;2022-10-16T16:53:57;4.43;;;1.00;;
5845;SDS011;2949;50.778;7.094;2022-10-16T16:56:23;2.43;;;0.70;;
5845;SDS011;2949;50.778;7.094;2022-10-16T16:58:49;3.77;;;0.70;;
5845;SDS011;2949;50.778;7.094;2022-10-16T17:01:16;1.33;;;0.93;;
5845;SDS011;2949;50.778;7.094;2022-10-16T17:03:43;3.40;;;0.60;;
5845;SDS011;2949;50.778;7.094;2022-10-16T17:06:10;1.50;;;0.63;;